Time;durP1;ratioP1;P1;durP2;ratioP2;P2;SDS_P1;SDS_P2;PMS_P1;PMS_P2;Temp;Humidity;BMP_temperature;BMP_pressure;BME280_temperature;BME280_humidity;BME280_pressure;Samples;Min_cycle;Max_cycle;Signal;HPM_P1;HPM_P2
2023/09/06 00:01:45;;;;;;;3.45;2.55;;;;;;;;;;5099091;28;20223;-64
2023/09/06 00:04:19;;;;;;;2.42;2.25;;;;;;;;;;5098782;28;20251;-64
2023/09/06 00:06:53;;;;;;;2.78;2.50;;;;;;;;;;5099164;28;20286;-64
2023/09/06 00:09:28;;;;;;;2.80;2.60;;;;;;;;;;5098827;28;20256;-64
2023/09/06 00:12:01;;;;;;;2.70;2.50;;;;;;;;;;5098410;28;20469;-64
2023/09/06 00:14:39;;;;;;;2.80;2.60;;;;;;;;;;5077986;28;20208;-64
2023/09/06 00:17:16;;;;;;;3.42;2.65;;;;;;;;;;5078566;28;20204;-64
2023/09/06 00:19:55;;;;;;;2.83;2.63;;;;;;;;;;5077937;28;20204;-64
2023/09/06 00:22:29;;;;;;;2.85;2.65;;;;;;;;;;5078244;28;20208;-64
2023/09/06 00:25:01;;;;;;;2.47;2.38;;;;;;;;;;5077251;28;20210;-64
2023/09/06 00:27:35;;;;;;;2.70;2.50;;;;;;;;;;5078441;28;20200;-64
2023/09/06 00:30:08;;;;;;;2.40;2.20;;;;;;;;;;5078855;28;20231;-64
2023/09/06 00:32:43;;;;;;;3.08;2.70;;;;;;;;;;5077705;28;20251;-64
2023/09/06 00:35:25;;;;;;;2.70;2.50;;;;;;;;;;5077405;28;20203;-64
2023/09/06 00:38:00;;;;;;;2.65;2.45;;;;;;;;;;5078048;28;20329;-64
2023/09/06 00:40:36;;;;;;;2.50;2.30;;;;;;;;;;5077550;28;20270;-64
2023/09/06 00:43:16;;;;;;;2.72;2.53;;;;;;;;;;5078153;28;20195;-64
2023/09/06 00:45:53;;;;;;;2.92;2.72;;;;;;;;;;5077895;28;20283;-64
2023/09/06 00:48:29;;;;;;;2.90;2.70;;;;;;;;;;5077145;28;20203;-64
2023/09/06 00:51:08;;;;;;;2.90;2.70;;;;;;;;;;5077632;28;20231;-64
2023/09/06 00:53:42;;;;;;;2.90;2.70;;;;;;;;;;5077989;28;20216;-64
2023/09/06 00:56:17;;;;;;;2.92;2.72;;;;;;;;;;5077721;28;20211;-64
2023/09/06 00:58:53;;;;;;;2.70;2.50;;;;;;;;;;5077707;28;20204;-64
2023/09/06 01:01:30;;;;;;;2.83;2.63;;;;;;;;;;5077626;28;20200;-64
2023/09/06 01:04:06;;;;;;;3.13;2.92;;;;;;;;;;5077750;28;20204;-64
2023/09/06 01:06:46;;;;;;;2.60;2.40;;;;;;;;;;5077764;28;20212;-64
2023/09/06 01:09:22;;;;;;;2.70;2.50;;;;;;;;;;5077591;28;20214;-64
2023/09/06 01:11:59;;;;;;;2.90;2.50;;;;;;;;;;5077665;28;20223;-64
2023/09/06 01:14:36;;;;;;;2.67;2.47;;;;;;;;;;5097536;28;20441;-64
2023/09/06 01:17:13;;;;;;;2.75;2.55;;;;;;;;;;5098056;28;20203;-64
2023/09/06 01:19:49;;;;;;;2.75;2.55;;;;;;;;;;5097670;28;20551;-64
2023/09/06 01:22:32;;;;;;;2.50;2.40;;;;;;;;;;5097532;28;20204;-64
2023/09/06 01:25:11;;;;;;;2.53;2.40;;;;;;;;;;5097692;28;20211;-64
2023/09/06 01:27:46;;;;;;;3.08;2.78;;;;;;;;;;5097397;28;20203;-64
2023/09/06 01:30:22;;;;;;;2.95;2.75;;;;;;;;;;5097102;28;20579;-64
2023/09/06 01:32:58;;;;;;;2.50;2.33;;;;;;;;;;5096917;28;20234;-64
2023/09/06 01:35:32;;;;;;;3.13;2.70;;;;;;;;;;5096604;28;20243;-64
2023/09/06 01:38:05;;;;;;;2.67;2.47;;;;;;;;;;5097339;28;20204;-64
2023/09/06 01:40:41;;;;;;;2.80;2.60;;;;;;;;;;5097379;28;20207;-64
2023/09/06 01:43:17;;;;;;;2.90;2.70;;;;;;;;;;5097555;28;20282;-64
2023/09/06 01:45:51;;;;;;;2.90;2.70;;;;;;;;;;5096718;28;20218;-64
2023/09/06 01:48:28;;;;;;;2.78;2.58;;;;;;;;;;5097065;28;20519;-64
2023/09/06 01:51:05;;;;;;;2.90;2.70;;;;;;;;;;5097254;28;20233;-64
2023/09/06 01:53:40;;;;;;;2.83;2.63;;;;;;;;;;5097063;28;20235;-64
2023/09/06 01:56:19;;;;;;;2.90;2.70;;;;;;;;;;5097730;28;20222;-64
2023/09/06 01:58:51;;;;;;;3.00;2.80;;;;;;;;;;5097135;28;20250;-64
2023/09/06 02:01:27;;;;;;;3.17;2.65;;;;;;;;;;5097395;28;20246;-64
2023/09/06 02:04:05;;;;;;;2.80;2.60;;;;;;;;;;5097098;28;20203;-64
2023/09/06 02:06:37;;;;;;;3.17;2.75;;;;;;;;;;5096703;28;20211;-64
2023/09/06 02:09:12;;;;;;;3.03;2.83;;;;;;;;;;5097248;28;20571;-64
2023/09/06 02:11:52;;;;;;;2.55;2.42;;;;;;;;;;5096826;28;20226;-64
2023/09/06 02:14:27;;;;;;;2.72;2.53;;;;;;;;;;5096233;28;20231;-64
2023/09/06 02:17:05;;;;;;;3.08;2.88;;;;;;;;;;5097085;28;20203;-64
2023/09/06 02:19:41;;;;;;;2.78;2.58;;;;;;;;;;5097034;28;20203;-64
2023/09/06 02:22:16;;;;;;;2.80;2.60;;;;;;;;;;5096981;28;20205;-64
2023/09/06 02:24:47;;;;;;;3.08;2.50;;;;;;;;;;5097029;28;20211;-64
2023/09/06 02:27:23;;;;;;;2.95;2.75;;;;;;;;;;5096258;28;20214;-64
2023/09/06 02:29:55;;;;;;;2.80;2.60;;;;;;;;;;5096903;28;20297;-64
2023/09/06 02:32:31;;;;;;;3.08;2.88;;;;;;;;;;5096440;28;20760;-64
2023/09/06 02:35:07;;;;;;;2.90;2.70;;;;;;;;;;5097313;28;20204;-64
2023/09/06 02:37:39;;;;;;;2.75;2.35;;;;;;;;;;5096017;28;20215;-64
2023/09/06 02:40:18;;;;;;;2.88;2.67;;;;;;;;;;5096515;28;20214;-64
2023/09/06 02:42:53;;;;;;;3.00;2.80;;;;;;;;;;5096601;28;20207;-64
2023/09/06 02:45:36;;;;;;;2.97;2.78;;;;;;;;;;5096670;28;20475;-64
2023/09/06 02:48:16;;;;;;;2.95;2.75;;;;;;;;;;5097256;28;20216;-64
2023/09/06 02:50:51;;;;;;;3.00;2.80;;;;;;;;;;5099870;28;20214;-64
2023/09/06 02:53:26;;;;;;;2.75;2.55;;;;;;;;;;5100331;28;20538;-64
2023/09/06 02:55:57;;;;;;;2.78;2.58;;;;;;;;;;5100180;28;20203;-64
2023/09/06 02:58:37;;;;;;;2.45;2.25;;;;;;;;;;5100426;28;20203;-64
2023/09/06 03:01:19;;;;;;;3.28;3.08;;;;;;;;;;5099983;28;20203;-64
2023/09/06 03:03:53;;;;;;;2.85;2.65;;;;;;;;;;5099680;28;20208;-64
2023/09/06 03:06:37;;;;;;;3.55;2.75;;;;;;;;;;5099993;28;20203;-64
2023/09/06 03:09:12;;;;;;;2.95;2.75;;;;;;;;;;5099806;28;20203;-64
2023/09/06 03:11:47;;;;;;;2.65;2.45;;;;;;;;;;5099807;28;20238;-64
2023/09/06 03:14:30;;;;;;;3.15;2.85;;;;;;;;;;5099557;28;20308;-64
2023/09/06 03:17:08;;;;;;;2.97;2.78;;;;;;;;;;5099002;28;20231;-64
2023/09/06 03:19:42;;;;;;;2.85;2.65;;;;;;;;;;5098982;28;20207;-64
2023/09/06 03:22:15;;;;;;;2.80;2.60;;;;;;;;;;5098071;28;20210;-64
2023/09/06 03:24:48;;;;;;;2.80;2.60;;;;;;;;;;5098632;28;20203;-64
2023/09/06 03:27:23;;;;;;;3.10;2.80;;;;;;;;;;5098018;28;20297;-64
2023/09/06 03:29:57;;;;;;;2.60;2.40;;;;;;;;;;5096691;28;20215;-64
2023/09/06 03:32:31;;;;;;;2.65;2.45;;;;;;;;;;5097989;28;20223;-64
2023/09/06 03:35:08;;;;;;;2.80;2.60;;;;;;;;;;5097998;28;20308;-64
2023/09/06 03:37:41;;;;;;;2.80;2.60;;;;;;;;;;5098440;28;20257;-64
2023/09/06 03:40:34;;;;;;;2.60;2.40;;;;;;;;;;5098914;28;20210;-64
2023/09/06 03:43:14;;;;;;;2.70;2.50;;;;;;;;;;5098299;28;20199;-64
2023/09/06 03:45:55;;;;;;;2.78;2.58;;;;;;;;;;5097620;28;20214;-64
2023/09/06 03:48:31;;;;;;;3.38;3.08;;;;;;;;;;5098257;28;20260;-64
2023/09/06 03:51:05;;;;;;;3.05;2.80;;;;;;;;;;5098627;28;20230;-64
2023/09/06 03:53:40;;;;;;;3.00;2.80;;;;;;;;;;5098502;28;20226;-64
2023/09/06 03:56:15;;;;;;;2.85;2.65;;;;;;;;;;5098407;28;20664;-64
2023/09/06 03:58:53;;;;;;;2.85;2.65;;;;;;;;;;5097088;28;20268;-64
2023/09/06 04:01:32;;;;;;;2.92;2.72;;;;;;;;;;5098192;28;20215;-64
2023/09/06 04:04:08;;;;;;;3.10;2.90;;;;;;;;;;5098063;28;20607;-64
2023/09/06 04:06:43;;;;;;;2.67;2.47;;;;;;;;;;5098243;28;20311;-64
2023/09/06 04:09:22;;;;;;;3.10;2.80;;;;;;;;;;5098199;28;20209;-64
2023/09/06 04:11:54;;;;;;;3.03;2.83;;;;;;;;;;5097691;28;20294;-64
2023/09/06 04:14:35;;;;;;;2.95;2.75;;;;;;;;;;5097594;28;20522;-65
2023/09/06 04:17:12;;;;;;;3.05;2.85;;;;;;;;;;5097622;28;20203;-64
2023/09/06 04:19:46;;;;;;;2.78;2.60;;;;;;;;;;5097413;28;20216;-64
2023/09/06 04:22:33;;;;;;;2.67;2.47;;;;;;;;;;5097745;28;20207;-64
2023/09/06 04:25:13;;;;;;;3.10;2.65;;;;;;;;;;5096557;28;20288;-64
2023/09/06 04:27:47;;;;;;;2.45;2.33;;;;;;;;;;5097073;28;20203;-64
2023/09/06 04:30:28;;;;;;;2.80;2.60;;;;;;;;;;5096112;28;20203;-64
2023/09/06 04:33:12;;;;;;;2.70;2.50;;;;;;;;;;5097180;28;20662;-64
2023/09/06 04:36:00;;;;;;;2.92;2.72;;;;;;;;;;5096596;28;20203;-64
2023/09/06 04:38:35;;;;;;;3.00;2.80;;;;;;;;;;5095591;28;20200;-64
2023/09/06 04:44:04;;;;;;;3.15;2.95;;;;;;;;;;5096092;28;20543;-64
2023/09/06 04:46:42;;;;;;;2.70;2.55;;;;;;;;;;5095107;28;20199;-64
2023/09/06 04:49:28;;;;;;;2.67;2.47;;;;;;;;;;5095860;28;20294;-64
2023/09/06 04:52:09;;;;;;;3.05;2.78;;;;;;;;;;5094788;28;20211;-64
2023/09/06 04:54:44;;;;;;;2.83;2.63;;;;;;;;;;5094861;28;20201;-64
2023/09/06 04:57:21;;;;;;;2.75;2.55;;;;;;;;;;5094429;28;20203;-64
2023/09/06 05:00:01;;;;;;;2.80;2.60;;;;;;;;;;5093851;28;20305;-65
2023/09/06 05:02:42;;;;;;;2.80;2.60;;;;;;;;;;5093650;28;20200;-64
2023/09/06 05:05:16;;;;;;;2.88;2.67;;;;;;;;;;5094119;28;20567;-64
2023/09/06 05:07:46;;;;;;;2.60;2.40;;;;;;;;;;5094851;28;20292;-64
2023/09/06 05:10:17;;;;;;;3.03;2.83;;;;;;;;;;5093464;28;20206;-64
2023/09/06 05:12:46;;;;;;;2.90;2.60;;;;;;;;;;5093818;28;20239;-64
2023/09/06 05:15:16;;;;;;;2.88;2.67;;;;;;;;;;5094615;28;20216;-64
2023/09/06 05:17:48;;;;;;;3.20;3.00;;;;;;;;;;5094373;28;20230;-64
2023/09/06 05:20:33;;;;;;;2.90;2.70;;;;;;;;;;5095442;28;20215;-64
2023/09/06 05:23:04;;;;;;;2.70;2.50;;;;;;;;;;5094829;28;20257;-64
2023/09/06 05:25:35;;;;;;;2.70;2.50;;;;;;;;;;5094034;28;20257;-64
2023/09/06 05:28:08;;;;;;;2.55;2.40;;;;;;;;;;5094565;28;20211;-64
2023/09/06 05:30:40;;;;;;;2.70;2.50;;;;;;;;;;5094235;28;20292;-64
2023/09/06 05:33:13;;;;;;;2.85;2.65;;;;;;;;;;5093506;28;20223;-64
2023/09/06 05:35:44;;;;;;;2.90;2.70;;;;;;;;;;5093513;28;20264;-64
2023/09/06 05:38:19;;;;;;;3.03;2.83;;;;;;;;;;5093812;28;20215;-64
2023/09/06 05:40:53;;;;;;;2.88;2.67;;;;;;;;;;5093681;28;20203;-64
2023/09/06 05:43:22;;;;;;;2.75;2.55;;;;;;;;;;5092569;28;20200;-64
2023/09/06 05:45:52;;;;;;;2.95;2.70;;;;;;;;;;5093937;28;20293;-64
2023/09/06 05:48:23;;;;;;;3.15;2.75;;;;;;;;;;5094029;28;20207;-64
2023/09/06 05:50:55;;;;;;;2.90;2.70;;;;;;;;;;5093397;28;20199;-64
2023/09/06 05:53:26;;;;;;;2.72;2.53;;;;;;;;;;5094434;28;20726;-64
2023/09/06 05:55:57;;;;;;;2.55;2.40;;;;;;;;;;5094151;28;20291;-64
2023/09/06 05:58:29;;;;;;;2.92;2.72;;;;;;;;;;5094279;28;20514;-64
2023/09/06 06:01:02;;;;;;;2.78;2.58;;;;;;;;;;5093193;28;20204;-64
2023/09/06 06:03:32;;;;;;;2.40;2.20;;;;;;;;;;5093804;28;20286;-64
2023/09/06 06:06:08;;;;;;;2.90;2.70;;;;;;;;;;5094352;28;20257;-64
2023/09/06 06:08:39;;;;;;;2.80;2.60;;;;;;;;;;5094439;28;20522;-64
2023/09/06 06:11:11;;;;;;;3.33;3.10;;;;;;;;;;5094034;28;20246;-64
2023/09/06 06:13:43;;;;;;;3.20;3.00;;;;;;;;;;5093256;28;20246;-64
2023/09/06 06:16:13;;;;;;;2.83;2.63;;;;;;;;;;5093938;28;20212;-64
2023/09/06 06:18:44;;;;;;;2.90;2.70;;;;;;;;;;5093881;28;20204;-64
2023/09/06 06:21:18;;;;;;;2.80;2.60;;;;;;;;;;5094862;28;20286;-64
2023/09/06 06:23:47;;;;;;;3.13;2.92;;;;;;;;;;5098876;28;20198;-64
2023/09/06 06:26:19;;;;;;;3.35;3.05;;;;;;;;;;5098657;28;20211;-64
2023/09/06 06:28:52;;;;;;;3.05;2.85;;;;;;;;;;5097423;28;20210;-64
2023/09/06 06:31:23;;;;;;;2.70;2.50;;;;;;;;;;5097697;28;20640;-64
2023/09/06 06:33:55;;;;;;;3.67;3.03;;;;;;;;;;5098295;28;20263;-64
2023/09/06 06:36:28;;;;;;;3.45;3.15;;;;;;;;;;5097933;28;20195;-64
2023/09/06 06:38:59;;;;;;;3.00;2.80;;;;;;;;;;5098268;28;20260;-64
2023/09/06 06:41:30;;;;;;;3.28;3.08;;;;;;;;;;5097836;28;20667;-64
2023/09/06 06:44:01;;;;;;;3.25;3.05;;;;;;;;;;5098508;28;20199;-65
2023/09/06 06:46:31;;;;;;;2.80;2.60;;;;;;;;;;5098093;28;20215;-64
2023/09/06 06:49:04;;;;;;;2.70;2.50;;;;;;;;;;5098297;28;20643;-64
2023/09/06 06:51:38;;;;;;;3.00;2.80;;;;;;;;;;5098504;28;20227;-64
2023/09/06 06:54:09;;;;;;;3.03;2.83;;;;;;;;;;5097375;28;20609;-64
2023/09/06 06:56:42;;;;;;;3.00;2.80;;;;;;;;;;5097830;28;20257;-64
2023/09/06 06:59:12;;;;;;;3.10;2.90;;;;;;;;;;5097225;28;20200;-64
2023/09/06 07:01:42;;;;;;;2.80;2.60;;;;;;;;;;5097798;28;20306;-64
2023/09/06 07:04:11;;;;;;;2.95;2.75;;;;;;;;;;5098148;28;20209;-64
2023/09/06 07:06:46;;;;;;;3.00;2.80;;;;;;;;;;5097985;28;20214;-64
2023/09/06 07:09:17;;;;;;;2.80;2.60;;;;;;;;;;5097946;28;20218;-64
2023/09/06 07:11:48;;;;;;;3.00;2.80;;;;;;;;;;5097759;28;20828;-64
2023/09/06 07:14:18;;;;;;;3.25;3.05;;;;;;;;;;5097108;28;20595;-64
2023/09/06 07:16:48;;;;;;;2.88;2.67;;;;;;;;;;5097910;28;20240;-64
2023/09/06 07:19:18;;;;;;;3.03;2.83;;;;;;;;;;5097189;28;20234;-64
2023/09/06 07:21:49;;;;;;;2.85;2.65;;;;;;;;;;5097167;28;20490;-64
2023/09/06 07:24:20;;;;;;;2.83;2.63;;;;;;;;;;5097634;28;20200;-64
2023/09/06 07:26:51;;;;;;;2.63;2.42;;;;;;;;;;5096589;28;20424;-64
2023/09/06 07:29:27;;;;;;;3.35;3.10;;;;;;;;;;5096518;28;20204;-64
2023/09/06 07:32:01;;;;;;;3.20;2.90;;;;;;;;;;5097426;28;20195;-64
2023/09/06 07:34:36;;;;;;;2.78;2.58;;;;;;;;;;5095402;28;20273;-64
2023/09/06 07:37:20;;;;;;;3.38;3.10;;;;;;;;;;5097488;28;20213;-64
2023/09/06 07:39:55;;;;;;;2.97;2.78;;;;;;;;;;5096306;28;20451;-64
2023/09/06 07:42:28;;;;;;;2.83;2.63;;;;;;;;;;5097110;28;20207;-64
2023/09/06 07:45:03;;;;;;;2.65;2.45;;;;;;;;;;5096285;28;20295;-64
2023/09/06 07:47:34;;;;;;;2.95;2.72;;;;;;;;;;5096179;28;20211;-64
2023/09/06 07:50:09;;;;;;;2.97;2.78;;;;;;;;;;5095020;28;20226;-64
2023/09/06 07:52:46;;;;;;;2.80;2.60;;;;;;;;;;5096077;28;20208;-64
2023/09/06 07:55:20;;;;;;;2.75;2.55;;;;;;;;;;5095423;28;20223;-64
2023/09/06 07:57:53;;;;;;;3.00;2.80;;;;;;;;;;5095949;28;20235;-64
2023/09/06 08:00:28;;;;;;;3.10;2.90;;;;;;;;;;5096325;28;20582;-64
2023/09/06 08:03:03;;;;;;;2.75;2.55;;;;;;;;;;5096004;28;20647;-64
2023/09/06 08:05:39;;;;;;;2.70;2.50;;;;;;;;;;5096787;28;20260;-64
2023/09/06 08:08:19;;;;;;;2.75;2.55;;;;;;;;;;5096536;28;20268;-64
2023/09/06 08:10:53;;;;;;;2.88;2.67;;;;;;;;;;5095828;28;20203;-64
2023/09/06 08:13:24;;;;;;;3.08;2.85;;;;;;;;;;5095627;28;20515;-64
2023/09/06 08:15:54;;;;;;;2.70;2.50;;;;;;;;;;5096583;28;20231;-64
2023/09/06 08:18:28;;;;;;;2.80;2.60;;;;;;;;;;5095715;28;20200;-64
2023/09/06 08:21:01;;;;;;;2.40;2.30;;;;;;;;;;5095576;28;20257;-64
2023/09/06 08:23:31;;;;;;;2.60;2.40;;;;;;;;;;5095402;28;20200;-64
2023/09/06 08:26:04;;;;;;;2.90;2.70;;;;;;;;;;5095819;28;20253;-64
2023/09/06 08:28:39;;;;;;;2.70;2.50;;;;;;;;;;5096157;28;20211;-64
2023/09/06 08:31:14;;;;;;;2.78;2.58;;;;;;;;;;5095913;28;20263;-64
2023/09/06 08:33:48;;;;;;;2.90;2.60;;;;;;;;;;5095468;28;20218;-64
2023/09/06 08:36:23;;;;;;;2.70;2.50;;;;;;;;;;5095380;28;20265;-64
2023/09/06 08:38:58;;;;;;;2.90;2.70;;;;;;;;;;5094220;28;20203;-64
2023/09/06 08:41:32;;;;;;;3.20;2.92;;;;;;;;;;5095171;28;20199;-64
2023/09/06 08:44:09;;;;;;;2.85;2.65;;;;;;;;;;5094355;28;20564;-64
2023/09/06 08:46:45;;;;;;;2.60;2.40;;;;;;;;;;5094308;28;20243;-64
2023/09/06 08:49:21;;;;;;;3.05;2.78;;;;;;;;;;5095225;28;20300;-64
2023/09/06 08:51:56;;;;;;;2.60;2.40;;;;;;;;;;5094600;28;20203;-64
2023/09/06 08:54:37;;;;;;;2.83;2.63;;;;;;;;;;5093768;28;20223;-64
2023/09/06 08:57:13;;;;;;;2.83;2.63;;;;;;;;;;5094378;28;20211;-64
2023/09/06 08:59:50;;;;;;;2.63;2.42;;;;;;;;;;5095102;28;20298;-64
2023/09/06 09:02:23;;;;;;;2.70;2.50;;;;;;;;;;5095016;28;20203;-64
2023/09/06 09:04:57;;;;;;;2.70;2.50;;;;;;;;;;5094992;28;20206;-64
2023/09/06 09:07:29;;;;;;;3.00;2.78;;;;;;;;;;5094634;28;20203;-64
2023/09/06 09:10:04;;;;;;;2.80;2.60;;;;;;;;;;5093906;28;20204;-64
2023/09/06 09:12:39;;;;;;;2.80;2.60;;;;;;;;;;5094651;28;20583;-64
2023/09/06 09:15:14;;;;;;;2.50;2.30;;;;;;;;;;5095217;28;20223;-64
2023/09/06 09:17:50;;;;;;;2.92;2.70;;;;;;;;;;5094883;28;20232;-64
2023/09/06 09:20:24;;;;;;;2.90;2.67;;;;;;;;;;5094770;28;20287;-64
2023/09/06 09:22:57;;;;;;;2.92;2.72;;;;;;;;;;5095018;28;20230;-64
2023/09/06 09:25:38;;;;;;;2.65;2.45;;;;;;;;;;5095508;28;20203;-64
2023/09/06 09:28:24;;;;;;;2.90;2.70;;;;;;;;;;5093583;28;20261;-64
2023/09/06 09:30:52;;;;;;;2.50;2.40;;;;;;;;;;5093990;28;20502;-64
2023/09/06 09:33:20;;;;;;;3.08;2.88;;;;;;;;;;5092216;28;20484;-65
2023/09/06 09:35:48;;;;;;;3.08;2.88;;;;;;;;;;5093670;28;20234;-64
2023/09/06 09:38:16;;;;;;;3.05;2.75;;;;;;;;;;5092874;28;20203;-64
2023/09/06 09:40:44;;;;;;;2.80;2.60;;;;;;;;;;5092184;28;20211;-64
2023/09/06 09:43:12;;;;;;;3.10;2.90;;;;;;;;;;5092576;28;20215;-64
2023/09/06 09:45:43;;;;;;;2.80;2.60;;;;;;;;;;5092456;28;20199;-64
2023/09/06 09:48:11;;;;;;;2.95;2.75;;;;;;;;;;5092734;28;20204;-64
2023/09/06 09:50:41;;;;;;;2.88;2.67;;;;;;;;;;5091652;28;20215;-64
2023/09/06 09:53:09;;;;;;;3.78;2.55;;;;;;;;;;5092533;28;20266;-64
2023/09/06 09:55:42;;;;;;;3.10;2.85;;;;;;;;;;5092514;28;20234;-64
2023/09/06 09:58:11;;;;;;;3.03;2.45;;;;;;;;;;5096596;28;20481;-64
2023/09/06 10:00:41;;;;;;;2.60;2.40;;;;;;;;;;5096548;28;20207;-64
2023/09/06 10:03:09;;;;;;;4.03;2.42;;;;;;;;;;5095358;28;20460;-63
2023/09/06 10:05:37;;;;;;;3.03;2.35;;;;;;;;;;5095947;28;20210;-63
2023/09/06 10:08:07;;;;;;;2.97;2.70;;;;;;;;;;5095887;28;20199;-63
2023/09/06 10:10:35;;;;;;;3.47;2.53;;;;;;;;;;5096227;28;20241;-63
2023/09/06 10:13:04;;;;;;;2.83;2.47;;;;;;;;;;5096305;28;20239;-63
2023/09/06 10:15:34;;;;;;;2.92;2.30;;;;;;;;;;5096743;28;20230;-63
2023/09/06 10:18:03;;;;;;;2.50;2.30;;;;;;;;;;5097323;28;20203;-63
2023/09/06 10:20:32;;;;;;;2.67;2.47;;;;;;;;;;5096358;28;20211;-63
2023/09/06 10:23:01;;;;;;;3.17;2.70;;;;;;;;;;5097278;28;20464;-64
2023/09/06 10:25:28;;;;;;;2.60;2.40;;;;;;;;;;5097247;28;20210;-64
2023/09/06 10:27:57;;;;;;;2.63;2.42;;;;;;;;;;5096648;28;20211;-64
2023/09/06 10:30:28;;;;;;;2.97;2.58;;;;;;;;;;5096480;28;20203;-64
2023/09/06 10:32:57;;;;;;;3.65;2.42;;;;;;;;;;5096449;28;20479;-64
2023/09/06 10:35:27;;;;;;;3.00;2.80;;;;;;;;;;5095186;28;20649;-64
2023/09/06 10:38:04;;;;;;;2.88;2.67;;;;;;;;;;5095371;28;20539;-64
2023/09/06 10:40:49;;;;;;;2.95;2.53;;;;;;;;;;5094836;28;20273;-64
2023/09/06 10:43:16;;;;;;;2.95;2.75;;;;;;;;;;5084395;28;20218;-64
2023/09/06 10:45:55;;;;;;;2.70;2.50;;;;;;;;;;5094720;28;20200;-64
2023/09/06 10:48:24;;;;;;;3.40;2.97;;;;;;;;;;5095705;28;20265;-64
2023/09/06 10:51:07;;;;;;;2.90;2.50;;;;;;;;;;5095479;28;20633;-64
2023/09/06 10:53:34;;;;;;;2.70;2.50;;;;;;;;;;5096034;28;20265;-63
2023/09/06 10:56:02;;;;;;;2.35;2.15;;;;;;;;;;5094677;28;20234;-63
2023/09/06 10:58:30;;;;;;;3.00;2.50;;;;;;;;;;5094295;28;20306;-63
2023/09/06 11:01:17;;;;;;;2.47;2.28;;;;;;;;;;5094613;28;20606;-63
2023/09/06 11:03:49;;;;;;;2.97;2.47;;;;;;;;;;5093738;28;20292;-63
2023/09/06 11:06:18;;;;;;;2.38;2.20;;;;;;;;;;5093484;28;20265;-63
2023/09/06 11:08:46;;;;;;;2.30;2.20;;;;;;;;;;5091373;28;20204;-64
2023/09/06 11:11:14;;;;;;;2.60;2.30;;;;;;;;;;5093649;28;20204;-64
2023/09/06 11:13:42;;;;;;;2.40;2.20;;;;;;;;;;5093575;28;20332;-64
2023/09/06 11:16:13;;;;;;;2.63;2.42;;;;;;;;;;5094583;28;20227;-64
2023/09/06 11:18:44;;;;;;;2.40;2.20;;;;;;;;;;5093036;28;20276;-64
2023/09/06 11:21:16;;;;;;;2.70;2.50;;;;;;;;;;5093128;28;20215;-64
2023/09/06 11:23:47;;;;;;;2.72;2.47;;;;;;;;;;5093449;28;20203;-64
2023/09/06 11:26:14;;;;;;;2.75;2.40;;;;;;;;;;5095038;28;20204;-64
2023/09/06 11:28:43;;;;;;;2.58;2.38;;;;;;;;;;5094683;28;20680;-64
2023/09/06 11:31:20;;;;;;;2.83;2.40;;;;;;;;;;5094627;28;20567;-64
2023/09/06 11:33:53;;;;;;;2.58;2.38;;;;;;;;;;5093663;28;20489;-64
2023/09/06 11:36:24;;;;;;;2.30;2.10;;;;;;;;;;5093474;28;20224;-64
2023/09/06 11:38:53;;;;;;;2.65;2.45;;;;;;;;;;5094722;28;20374;-64
2023/09/06 11:41:20;;;;;;;2.75;2.50;;;;;;;;;;5093707;28;20215;-64
2023/09/06 11:43:51;;;;;;;2.58;2.38;;;;;;;;;;5093710;28;20215;-64
2023/09/06 11:46:19;;;;;;;2.70;2.50;;;;;;;;;;5092922;28;20532;-64
2023/09/06 11:48:47;;;;;;;2.38;2.17;;;;;;;;;;5094211;28;20207;-65
2023/09/06 11:51:18;;;;;;;2.40;2.20;;;;;;;;;;5092853;28;20211;-64
2023/09/06 11:53:54;;;;;;;2.30;2.20;;;;;;;;;;5094123;28;20265;-64
2023/09/06 11:56:26;;;;;;;2.22;2.13;;;;;;;;;;5094023;28;20226;-64
2023/09/06 11:58:54;;;;;;;2.38;2.17;;;;;;;;;;5094660;28;20210;-64
2023/09/06 12:01:22;;;;;;;3.00;2.80;;;;;;;;;;5093254;28;20211;-64
2023/09/06 12:03:50;;;;;;;2.60;2.40;;;;;;;;;;5093238;28;20498;-64
2023/09/06 12:06:18;;;;;;;2.70;2.50;;;;;;;;;;5093995;28;20244;-64
2023/09/06 12:08:45;;;;;;;2.65;2.45;;;;;;;;;;5093107;28;20211;-64
2023/09/06 12:11:21;;;;;;;2.58;2.42;;;;;;;;;;5092505;28;20207;-64
2023/09/06 12:13:48;;;;;;;2.72;2.53;;;;;;;;;;5093306;28;20324;-64
2023/09/06 12:16:16;;;;;;;2.72;2.50;;;;;;;;;;5092755;28;20220;-64
2023/09/06 12:18:44;;;;;;;2.83;2.63;;;;;;;;;;5092218;28;20203;-64
2023/09/06 12:21:11;;;;;;;2.60;2.40;;;;;;;;;;5091841;28;20196;-64
2023/09/06 12:23:39;;;;;;;2.20;2.10;;;;;;;;;;5090830;28;20218;-64
2023/09/06 12:26:08;;;;;;;2.45;2.25;;;;;;;;;;5090764;28;20458;-64
2023/09/06 12:28:37;;;;;;;2.53;2.33;;;;;;;;;;5092163;28;20347;-64
2023/09/06 12:31:05;;;;;;;2.65;2.45;;;;;;;;;;5092622;28;20215;-64
2023/09/06 12:33:33;;;;;;;2.20;2.10;;;;;;;;;;5092158;28;20459;-64
2023/09/06 12:36:03;;;;;;;2.60;2.40;;;;;;;;;;5090934;28;20219;-64
2023/09/06 12:38:31;;;;;;;2.55;2.35;;;;;;;;;;5091977;28;20579;-64
2023/09/06 12:40:59;;;;;;;2.50;2.30;;;;;;;;;;5091944;28;20621;-64
2023/09/06 12:43:26;;;;;;;2.67;2.47;;;;;;;;;;5091543;28;20199;-64
2023/09/06 12:45:57;;;;;;;2.72;2.53;;;;;;;;;;5092212;28;20264;-64
2023/09/06 12:48:25;;;;;;;2.53;2.35;;;;;;;;;;5092134;28;20571;-64
2023/09/06 12:50:52;;;;;;;2.55;2.35;;;;;;;;;;5092806;28;20256;-64
2023/09/06 12:53:20;;;;;;;2.50;2.30;;;;;;;;;;5092371;28;20232;-64
2023/09/06 12:55:47;;;;;;;2.50;2.30;;;;;;;;;;5092782;28;20706;-64
2023/09/06 12:58:15;;;;;;;2.53;2.33;;;;;;;;;;5092969;28;20210;-64
2023/09/06 13:00:42;;;;;;;2.55;2.35;;;;;;;;;;5092298;28;20485;-64
2023/09/06 13:03:11;;;;;;;2.75;2.55;;;;;;;;;;5091790;28;20203;-64
2023/09/06 13:05:41;;;;;;;2.63;2.50;;;;;;;;;;5092097;28;20265;-64
2023/09/06 13:08:09;;;;;;;2.70;2.50;;;;;;;;;;5091419;28;20288;-64
2023/09/06 13:10:36;;;;;;;2.80;2.60;;;;;;;;;;5091626;28;20628;-64
2023/09/06 13:13:04;;;;;;;2.60;2.40;;;;;;;;;;5092268;28;20239;-64
2023/09/06 13:15:31;;;;;;;2.97;2.78;;;;;;;;;;5092395;28;20614;-64
2023/09/06 13:17:59;;;;;;;2.42;2.28;;;;;;;;;;5092579;28;20210;-64
2023/09/06 13:20:27;;;;;;;2.70;2.50;;;;;;;;;;5092650;28;20195;-63
2023/09/06 13:22:55;;;;;;;2.83;2.63;;;;;;;;;;5092680;28;20226;-63
2023/09/06 13:25:24;;;;;;;2.70;2.50;;;;;;;;;;5091997;28;20587;-63
2023/09/06 13:27:51;;;;;;;2.80;2.60;;;;;;;;;;5092895;28;20200;-63
2023/09/06 13:30:19;;;;;;;2.80;2.60;;;;;;;;;;5091667;28;20211;-63
2023/09/06 13:32:46;;;;;;;3.13;2.83;;;;;;;;;;5091624;28;20581;-63
2023/09/06 13:35:13;;;;;;;2.78;2.58;;;;;;;;;;5093250;28;20223;-63
2023/09/06 13:37:42;;;;;;;2.80;2.60;;;;;;;;;;5092327;28;20223;-63
2023/09/06 13:40:11;;;;;;;2.65;2.45;;;;;;;;;;5091992;28;20218;-64
2023/09/06 13:42:39;;;;;;;2.65;2.45;;;;;;;;;;5092056;28;20277;-63
2023/09/06 13:45:06;;;;;;;2.65;2.45;;;;;;;;;;5092591;28;20233;-64
2023/09/06 13:47:34;;;;;;;2.63;2.42;;;;;;;;;;5092695;28;20496;-64
2023/09/06 13:50:02;;;;;;;2.92;2.60;;;;;;;;;;5092397;28;20207;-64
2023/09/06 13:52:29;;;;;;;2.85;2.65;;;;;;;;;;5091804;28;20204;-64
2023/09/06 13:54:58;;;;;;;2.60;2.40;;;;;;;;;;5091635;28;20482;-64
2023/09/06 13:57:27;;;;;;;2.90;2.70;;;;;;;;;;5092504;28;20361;-64
2023/09/06 13:59:55;;;;;;;2.55;2.35;;;;;;;;;;5092722;28;20234;-64
2023/09/06 14:02:22;;;;;;;3.00;2.80;;;;;;;;;;5091214;28;20204;-64
2023/09/06 14:04:51;;;;;;;2.85;2.65;;;;;;;;;;5090491;28;20215;-64
2023/09/06 14:07:19;;;;;;;3.10;2.80;;;;;;;;;;5092062;28;20203;-63
2023/09/06 14:09:46;;;;;;;2.60;2.40;;;;;;;;;;5092543;28;20208;-63
2023/09/06 14:12:15;;;;;;;3.00;2.80;;;;;;;;;;5092889;28;20516;-63
2023/09/06 14:14:42;;;;;;;3.10;2.80;;;;;;;;;;5071752;28;20331;-63
2023/09/06 14:17:09;;;;;;;3.20;2.90;;;;;;;;;;5071687;28;20626;-64
2023/09/06 14:19:37;;;;;;;3.15;2.95;;;;;;;;;;5071740;28;20197;-64
2023/09/06 14:22:09;;;;;;;2.92;2.72;;;;;;;;;;5070658;28;20219;-64
2023/09/06 14:24:37;;;;;;;3.15;2.95;;;;;;;;;;5071898;28;20212;-64
2023/09/06 14:27:05;;;;;;;2.75;2.55;;;;;;;;;;5070657;28;20192;-64
2023/09/06 14:29:33;;;;;;;3.00;2.80;;;;;;;;;;5071309;28;20630;-64
2023/09/06 14:32:01;;;;;;;2.92;2.72;;;;;;;;;;5071474;28;20204;-64
2023/09/06 14:34:28;;;;;;;3.25;2.92;;;;;;;;;;5073627;28;20602;-64
2023/09/06 14:36:56;;;;;;;3.65;2.75;;;;;;;;;;5072940;28;20228;-64
2023/09/06 14:39:24;;;;;;;2.78;2.58;;;;;;;;;;5092369;28;20212;-64
2023/09/06 14:41:51;;;;;;;2.90;2.70;;;;;;;;;;5093245;28;20203;-64
2023/09/06 14:44:18;;;;;;;2.90;2.70;;;;;;;;;;5095946;28;20641;-63
2023/09/06 14:46:48;;;;;;;3.42;3.13;;;;;;;;;;5096680;28;20207;-63
2023/09/06 14:49:15;;;;;;;2.90;2.70;;;;;;;;;;5097404;28;20234;-64
2023/09/06 14:51:42;;;;;;;3.08;2.88;;;;;;;;;;5097218;28;20223;-63
2023/09/06 14:54:09;;;;;;;2.95;2.75;;;;;;;;;;5096876;28;20739;-63
2023/09/06 14:56:37;;;;;;;3.10;2.90;;;;;;;;;;5096478;28;20228;-63
2023/09/06 14:59:04;;;;;;;3.47;3.20;;;;;;;;;;5097141;28;20204;-64
2023/09/06 15:01:33;;;;;;;2.97;2.78;;;;;;;;;;5096331;28;20203;-63
2023/09/06 15:04:02;;;;;;;3.22;3.03;;;;;;;;;;5095050;28;20215;-63
2023/09/06 15:06:29;;;;;;;3.10;2.90;;;;;;;;;;5097250;28;20215;-63
2023/09/06 15:08:57;;;;;;;3.13;2.92;;;;;;;;;;5096082;28;20203;-63
2023/09/06 15:11:23;;;;;;;3.15;2.95;;;;;;;;;;5096224;28;20656;-63
2023/09/06 15:13:50;;;;;;;3.13;2.92;;;;;;;;;;5108354;28;20347;-63
2023/09/06 15:16:18;;;;;;;3.25;2.95;;;;;;;;;;5117281;28;20223;-63
2023/09/06 15:18:48;;;;;;;3.15;2.90;;;;;;;;;;5116046;28;20206;-63